Time;durP1;ratioP1;P1;durP2;ratioP2;P2;SDS_P1;SDS_P2;PMS_P1;PMS_P2;Temp;Humidity;BMP_temperature;BMP_pressure;BME280_temperature;BME280_humidity;BME280_pressure;Samples;Min_cycle;Max_cycle;Signal;HPM_P1;HPM_P2
2023/06/22 00:01:54;;;;;;;1.95;1.85;;;24.30;99.90;;;;;;5063165;28;20719;-64
2023/06/22 00:04:22;;;;;;;1.70;1.60;;;24.20;99.90;;;;;;5069448;28;20189;-65
2023/06/22 00:06:49;;;;;;;2.13;2.03;;;24.20;99.90;;;;;;5066612;28;20608;-64
2023/06/22 00:09:19;;;;;;;1.50;1.50;;;24.20;99.90;;;;;;5069115;28;20225;-65
2023/06/22 00:11:46;;;;;;;2.03;1.92;;;24.20;99.90;;;;;;5057866;28;20278;-65
2023/06/22 00:14:14;;;;;;;2.22;2.13;;;24.20;99.90;;;;;;5057682;28;20691;-65
2023/06/22 00:16:42;;;;;;;1.85;1.73;;;24.20;99.90;;;;;;5060327;28;20281;-65
2023/06/22 00:19:11;;;;;;;1.75;1.65;;;24.20;99.90;;;;;;5064009;28;20345;-64
2023/06/22 00:21:39;;;;;;;1.70;1.60;;;24.20;99.90;;;;;;5066089;28;20222;-65
2023/06/22 00:24:07;;;;;;;1.73;1.60;;;24.10;99.90;;;;;;5064475;28;20193;-64
2023/06/22 00:26:36;;;;;;;2.92;2.55;;;24.10;99.90;;;;;;5067963;28;20196;-65
2023/06/22 00:29:03;;;;;;;2.38;2.28;;;24.10;99.90;;;;;;5067040;28;20319;-67
2023/06/22 00:31:31;;;;;;;2.15;2.05;;;24.10;99.90;;;;;;5069436;28;20200;-65
2023/06/22 00:33:59;;;;;;;1.90;1.80;;;24.00;99.90;;;;;;5069605;28;20233;-65
2023/06/22 00:36:27;;;;;;;1.92;1.83;;;24.00;99.90;;;;;;5068778;28;20200;-65
2023/06/22 00:38:54;;;;;;;1.88;1.77;;;24.00;99.90;;;;;;5069853;28;20193;-65
2023/06/22 00:41:22;;;;;;;1.77;1.67;;;24.00;99.90;;;;;;5068637;28;20300;-65
2023/06/22 00:43:51;;;;;;;2.58;2.35;;;24.00;99.90;;;;;;5069629;28;20224;-64
2023/06/22 00:46:18;;;;;;;4.15;3.45;;;23.90;99.90;;;;;;5069230;28;20192;-64
2023/06/22 00:48:46;;;;;;;31.73;11.07;;;24.00;99.90;;;;;;5063855;28;20198;-64
2023/06/22 00:51:13;;;;;;;17.90;8.60;;;23.90;99.90;;;;;;5061684;28;20759;-65
2023/06/22 00:53:43;;;;;;;22.67;9.80;;;24.00;99.90;;;;;;5069416;28;20190;-65
2023/06/22 00:56:13;;;;;;;12.98;6.70;;;24.00;99.90;;;;;;5065973;28;20502;-65
2023/06/22 00:58:41;;;;;;;7.78;5.25;;;23.90;99.90;;;;;;5070167;28;20197;-65
2023/06/22 01:01:10;;;;;;;4.50;4.10;;;23.90;99.90;;;;;;5067127;28;20216;-65
2023/06/22 01:03:38;;;;;;;4.60;3.53;;;23.80;99.90;;;;;;5069165;28;20297;-64
2023/06/22 01:06:13;;;;;;;3.10;2.90;;;23.80;99.90;;;;;;5067326;28;20306;-64
2023/06/22 01:08:47;;;;;;;2.40;2.30;;;23.80;99.90;;;;;;5062626;28;20194;-64
2023/06/22 01:11:25;;;;;;;2.97;2.67;;;23.80;99.90;;;;;;5055042;28;20243;-65
2023/06/22 01:13:58;;;;;;;2.85;2.22;;;23.70;99.90;;;;;;5049153;28;20212;-64
2023/06/22 01:16:31;;;;;;;2.67;2.47;;;23.60;99.90;;;;;;5067377;28;20201;-65
2023/06/22 01:19:09;;;;;;;2.30;2.20;;;23.60;99.90;;;;;;5067867;28;20223;-64
2023/06/22 01:21:37;;;;;;;2.63;2.28;;;23.60;99.90;;;;;;5069258;28;20271;-64
2023/06/22 01:24:28;;;;;;;18.38;7.38;;;23.50;99.90;;;;;;5069689;28;20193;-65
2023/06/22 01:27:01;;;;;;;10.80;5.30;;;23.50;99.90;;;;;;5068298;28;20657;-65
2023/06/22 01:29:31;;;;;;;5.45;3.90;;;23.50;99.90;;;;;;5046900;28;20249;-64
2023/06/22 01:32:00;;;;;;;3.10;2.80;;;23.50;99.90;;;;;;5048109;28;20217;-65
2023/06/22 01:34:32;;;;;;;3.15;2.85;;;23.50;99.90;;;;;;5051002;28;20209;-65
2023/06/22 01:37:00;;;;;;;2.60;2.40;;;23.50;99.90;;;;;;5069189;28;20550;-64
2023/06/22 01:39:31;;;;;;;2.47;2.28;;;23.50;99.90;;;;;;5060354;28;20534;-65
2023/06/22 01:42:00;;;;;;;3.40;2.25;;;23.50;99.90;;;;;;5063437;28;20213;-65
2023/06/22 01:44:30;;;;;;;2.30;2.10;;;23.40;99.90;;;;;;5068037;28;20205;-65
2023/06/22 01:46:57;;;;;;;3.58;2.95;;;23.40;99.90;;;;;;5061758;28;20197;-65
2023/06/22 01:49:25;;;;;;;5.80;3.33;;;23.40;99.90;;;;;;5061251;28;20586;-65
2023/06/22 01:51:54;;;;;;;3.00;2.80;;;23.40;99.90;;;;;;5062059;28;20232;-64
2023/06/22 01:54:22;;;;;;;3.65;2.55;;;23.40;99.90;;;;;;5065636;28;20660;-64
2023/06/22 01:56:50;;;;;;;2.70;2.50;;;23.40;99.90;;;;;;5066840;28;20300;-65
2023/06/22 01:59:26;;;;;;;2.90;2.60;;;23.30;99.90;;;;;;5067830;28;20679;-65
2023/06/22 02:02:01;;;;;;;2.13;2.03;;;23.30;99.90;;;;;;5081189;28;20798;-63
2023/06/22 02:04:35;;;;;;;2.53;2.33;;;23.30;99.90;;;;;;5067828;28;20188;-65
2023/06/22 02:07:10;;;;;;;2.53;2.33;;;23.20;99.90;;;;;;5077677;28;20572;-64
2023/06/22 02:09:39;;;;;;;3.28;2.97;;;23.20;99.90;;;;;;5070419;28;20197;-65
2023/06/22 02:12:09;;;;;;;6.30;4.88;;;23.20;99.90;;;;;;5071072;28;20200;-65
2023/06/22 02:14:37;;;;;;;4.75;3.97;;;23.20;99.90;;;;;;5072371;28;20205;-65
2023/06/22 02:17:07;;;;;;;5.38;3.80;;;23.30;99.90;;;;;;5061892;28;20225;-64
2023/06/22 02:19:37;;;;;;;3.05;2.80;;;23.20;99.90;;;;;;5071959;28;20235;-65
2023/06/22 02:22:05;;;;;;;3.25;2.95;;;23.30;99.90;;;;;;5070932;28;20216;-65
2023/06/22 02:24:33;;;;;;;8.48;5.60;;;23.20;99.90;;;;;;5072147;28;20284;-65
2023/06/22 02:27:01;;;;;;;6.50;4.82;;;23.10;99.90;;;;;;5066256;28;20244;-65
2023/06/22 02:29:28;;;;;;;5.57;4.13;;;23.20;99.90;;;;;;5069951;28;20225;-65
2023/06/22 02:31:56;;;;;;;3.40;3.17;;;23.10;99.90;;;;;;5069703;28;20229;-64
2023/06/22 02:34:27;;;;;;;3.30;3.00;;;23.10;99.90;;;;;;5064552;28;20620;-64
2023/06/22 02:36:55;;;;;;;3.08;2.88;;;23.10;99.90;;;;;;5071832;28;20200;-65
2023/06/22 02:39:23;;;;;;;3.17;2.90;;;23.10;99.90;;;;;;5070797;28;20221;-65
2023/06/22 02:41:52;;;;;;;3.72;3.15;;;23.00;99.90;;;;;;5071262;28;20288;-65
2023/06/22 02:44:20;;;;;;;2.75;2.55;;;23.00;99.90;;;;;;5078536;28;20225;-65
2023/06/22 02:46:49;;;;;;;7.90;4.57;;;22.90;99.90;;;;;;5069768;28;20747;-65
2023/06/22 02:49:17;;;;;;;3.65;3.35;;;23.00;99.90;;;;;;5055713;28;20220;-64
2023/06/22 02:51:50;;;;;;;3.55;3.28;;;23.00;99.90;;;;;;5053709;28;20237;-66
2023/06/22 02:54:20;;;;;;;4.13;3.72;;;23.00;99.90;;;;;;5069911;28;20659;-65
2023/06/22 02:56:50;;;;;;;3.38;3.08;;;23.00;99.90;;;;;;5064667;28;20665;-66
2023/06/22 02:59:23;;;;;;;2.97;2.78;;;23.00;99.90;;;;;;5068944;28;20284;-66
2023/06/22 03:01:52;;;;;;;2.60;2.45;;;23.00;99.90;;;;;;5068378;28;20300;-65
2023/06/22 03:04:24;;;;;;;3.70;3.40;;;22.90;99.90;;;;;;5064648;28;20232;-65
2023/06/22 03:06:53;;;;;;;4.35;3.95;;;22.90;99.90;;;;;;5065406;28;20280;-65
2023/06/22 03:09:21;;;;;;;3.40;3.10;;;22.90;99.90;;;;;;5063849;28;20212;-66
2023/06/22 03:11:49;;;;;;;9.15;6.40;;;22.90;99.90;;;;;;5059485;28;20205;-65
2023/06/22 03:14:17;;;;;;;7.45;5.78;;;22.90;99.90;;;;;;5059131;28;20198;-65
2023/06/22 03:16:47;;;;;;;5.78;4.80;;;22.90;99.90;;;;;;5065618;28;20209;-65
2023/06/22 03:19:15;;;;;;;4.28;3.88;;;22.90;99.90;;;;;;5069239;28;20205;-64
2023/06/22 03:21:42;;;;;;;3.67;3.38;;;22.80;99.90;;;;;;5069919;28;20250;-66
2023/06/22 03:24:11;;;;;;;3.20;3.00;;;22.80;99.90;;;;;;5069132;28;20209;-64
2023/06/22 03:26:39;;;;;;;3.17;2.88;;;22.80;99.90;;;;;;5068239;28;20232;-65
2023/06/22 03:29:07;;;;;;;3.13;2.92;;;22.80;99.90;;;;;;5066359;28;20193;-65
2023/06/22 03:31:35;;;;;;;3.58;2.72;;;22.80;99.90;;;;;;5067083;28;20339;-65
2023/06/22 03:34:03;;;;;;;5.05;3.00;;;22.70;99.90;;;;;;5065579;28;20322;-66
2023/06/22 03:36:31;;;;;;;3.38;2.85;;;22.70;99.90;;;;;;5068402;28;20268;-64
2023/06/22 03:38:58;;;;;;;2.85;2.65;;;22.70;99.90;;;;;;5055864;28;20683;-65
2023/06/22 03:41:27;;;;;;;3.00;2.80;;;22.80;99.90;;;;;;5068830;28;20189;-65
2023/06/22 03:43:55;;;;;;;2.92;2.70;;;22.80;99.90;;;;;;5071073;28;20220;-65
2023/06/22 03:46:22;;;;;;;2.30;2.20;;;22.80;99.90;;;;;;5070775;28;20193;-65
2023/06/22 03:48:51;;;;;;;2.95;2.75;;;22.80;99.90;;;;;;5067259;28;20247;-65
2023/06/22 03:51:19;;;;;;;3.17;2.97;;;22.80;99.90;;;;;;5070908;28;20550;-65
2023/06/22 03:53:47;;;;;;;3.10;2.90;;;22.80;99.90;;;;;;5068253;28;20267;-64
2023/06/22 03:56:20;;;;;;;4.00;3.00;;;22.80;99.90;;;;;;5062847;28;20209;-65
2023/06/22 03:58:49;;;;;;;2.60;2.47;;;22.70;99.90;;;;;;5059256;28;20243;-66
2023/06/22 04:01:18;;;;;;;2.72;2.53;;;22.70;99.90;;;;;;5068054;28;20312;-65
2023/06/22 04:03:48;;;;;;;2.95;2.63;;;22.70;99.90;;;;;;5063707;28;20221;-65
2023/06/22 04:06:15;;;;;;;2.75;2.55;;;22.70;99.90;;;;;;5062204;28;20262;-65
2023/06/22 04:08:43;;;;;;;2.70;2.50;;;22.70;99.90;;;;;;5064432;28;20200;-65
2023/06/22 04:11:10;;;;;;;2.58;2.47;;;22.70;99.90;;;;;;5063448;28;20220;-64
2023/06/22 04:13:37;;;;;;;2.65;2.45;;;22.80;99.90;;;;;;5060191;28;20560;-65
2023/06/22 04:16:06;;;;;;;3.28;3.00;;;22.80;99.90;;;;;;5064306;28;20212;-64
2023/06/22 04:18:34;;;;;;;3.00;2.72;;;22.80;99.90;;;;;;5061835;28;20201;-66
2023/06/22 04:21:01;;;;;;;2.92;2.45;;;22.80;99.90;;;;;;5063599;28;20205;-65
2023/06/22 04:23:29;;;;;;;2.70;2.50;;;22.80;99.90;;;;;;5063037;28;20217;-64
2023/06/22 04:25:57;;;;;;;2.88;2.67;;;22.80;99.90;;;;;;5067486;28;20221;-64
2023/06/22 04:28:25;;;;;;;2.47;2.28;;;22.80;99.90;;;;;;5069149;28;20201;-65
2023/06/22 04:30:52;;;;;;;2.10;2.00;;;22.80;99.90;;;;;;5069260;28;20564;-64
2023/06/22 04:33:21;;;;;;;3.17;2.97;;;22.90;99.90;;;;;;5069542;28;20231;-65
2023/06/22 04:35:48;;;;;;;3.45;3.15;;;22.90;99.90;;;;;;5074357;28;20208;-65
2023/06/22 04:38:16;;;;;;;3.25;2.70;;;22.90;99.90;;;;;;5074555;28;20679;-65
2023/06/22 04:40:46;;;;;;;2.88;2.67;;;22.90;99.90;;;;;;5068722;28;20207;-64
2023/06/22 04:43:14;;;;;;;3.65;2.78;;;22.90;99.90;;;;;;5063640;28;20226;-64
2023/06/22 04:45:41;;;;;;;5.65;2.90;;;22.90;99.90;;;;;;5070093;28;20193;-64
2023/06/22 04:48:09;;;;;;;3.45;3.13;;;23.00;99.90;;;;;;5065840;28;20221;-64
2023/06/22 04:50:39;;;;;;;3.10;2.90;;;23.00;99.90;;;;;;5069703;28;20305;-64
2023/06/22 04:53:07;;;;;;;3.08;2.55;;;22.90;99.90;;;;;;5067943;28;20197;-65
2023/06/22 04:55:37;;;;;;;2.45;2.35;;;22.90;99.90;;;;;;5068679;28;20251;-65
2023/06/22 04:58:05;;;;;;;2.58;2.38;;;22.90;99.90;;;;;;5061274;28;20251;-64
2023/06/22 05:00:36;;;;;;;2.25;2.15;;;22.90;99.90;;;;;;5060192;28;20433;-64
2023/06/22 05:03:03;;;;;;;2.08;1.98;;;22.90;99.90;;;;;;5065349;28;20199;-64
2023/06/22 05:05:31;;;;;;;1.90;1.80;;;23.00;99.90;;;;;;5061754;28;20193;-65
2023/06/22 05:08:02;;;;;;;2.10;2.00;;;23.00;99.90;;;;;;5065150;28;20198;-64
2023/06/22 05:10:30;;;;;;;1.77;1.70;;;23.00;99.90;;;;;;5050241;28;20200;-65
2023/06/22 05:12:57;;;;;;;2.38;2.17;;;23.00;99.90;;;;;;5067337;28;20272;-64
2023/06/22 05:15:30;;;;;;;2.67;2.50;;;23.10;99.90;;;;;;5070223;28;20224;-65
2023/06/22 05:17:58;;;;;;;1.85;1.75;;;23.10;99.90;;;;;;5059701;28;20225;-65
2023/06/22 05:20:25;;;;;;;1.75;1.65;;;23.10;99.90;;;;;;5068197;28;20291;-64
2023/06/22 05:22:53;;;;;;;2.03;1.92;;;23.20;99.90;;;;;;5069986;28;20549;-65
2023/06/22 05:25:22;;;;;;;2.30;2.10;;;23.30;99.90;;;;;;5068376;28;20217;-64
2023/06/22 05:27:51;;;;;;;1.80;1.70;;;23.30;99.90;;;;;;5059459;28;20680;-64
2023/06/22 05:30:19;;;;;;;2.58;2.38;;;23.30;99.90;;;;;;5056320;28;20229;-64
2023/06/22 05:32:46;;;;;;;2.33;2.20;;;23.40;99.90;;;;;;5072577;28;20215;-65
2023/06/22 05:35:13;;;;;;;1.92;1.83;;;23.40;99.90;;;;;;5066063;28;20242;-65
2023/06/22 05:37:41;;;;;;;1.90;1.80;;;23.40;99.90;;;;;;5082236;28;20212;-65
2023/06/22 05:40:10;;;;;;;2.00;1.90;;;23.50;99.90;;;;;;5069659;28;20282;-65
2023/06/22 05:42:39;;;;;;;1.80;1.70;;;23.40;99.90;;;;;;5072448;28;20356;-64
2023/06/22 05:45:08;;;;;;;1.90;1.80;;;23.40;99.90;;;;;;5069280;28;20209;-64
2023/06/22 05:47:53;;;;;;;1.50;1.42;;;23.40;99.90;;;;;;5072016;28;20197;-64
2023/06/22 05:50:21;;;;;;;2.08;1.90;;;23.40;99.90;;;;;;5061407;28;20564;-64
2023/06/22 05:52:49;;;;;;;1.92;1.83;;;23.40;99.90;;;;;;5072388;28;20280;-64
2023/06/22 05:55:18;;;;;;;3.55;1.45;;;23.40;99.90;;;;;;5072544;28;20660;-65
2023/06/22 05:57:48;;;;;;;1.58;1.48;;;23.40;99.90;;;;;;5057350;28;20282;-65
2023/06/22 06:00:16;;;;;;;1.38;1.33;;;23.40;99.90;;;;;;5064179;28;20281;-66
2023/06/22 06:02:44;;;;;;;1.27;1.27;;;23.40;99.90;;;;;;5066475;28;20228;-65
2023/06/22 06:05:15;;;;;;;1.90;1.30;;;23.40;99.90;;;;;;5061763;28;20282;-64
2023/06/22 06:07:44;;;;;;;1.40;1.40;;;23.40;99.90;;;;;;5057589;28;20205;-65
2023/06/22 06:10:12;;;;;;;1.40;1.30;;;23.50;99.90;;;;;;5068160;28;20201;-66
2023/06/22 06:12:39;;;;;;;2.60;1.50;;;23.50;99.90;;;;;;5070024;28;20194;-66
2023/06/22 06:15:09;;;;;;;1.45;1.45;;;23.50;99.90;;;;;;5069715;28;20552;-66
2023/06/22 06:17:46;;;;;;;1.77;1.67;;;23.50;99.90;;;;;;5062927;28;20850;-66
2023/06/22 06:20:14;;;;;;;3.15;1.80;;;23.50;99.90;;;;;;5069037;28;20287;-66
2023/06/22 06:22:42;;;;;;;1.80;1.60;;;23.60;99.90;;;;;;5063838;28;20204;-64
2023/06/22 06:25:15;;;;;;;1.48;1.40;;;23.60;99.90;;;;;;5062548;28;20236;-64
2023/06/22 06:27:44;;;;;;;1.70;1.60;;;23.60;99.90;;;;;;5069079;28;20824;-66
2023/06/22 06:30:14;;;;;;;1.83;1.73;;;23.60;99.90;;;;;;5069886;28;20267;-66
2023/06/22 06:32:42;;;;;;;1.52;1.42;;;23.60;99.90;;;;;;5069385;28;20204;-65
2023/06/22 06:35:11;;;;;;;1.25;1.25;;;23.60;99.90;;;;;;5059160;28;20201;-65
2023/06/22 06:37:40;;;;;;;1.13;1.13;;;23.60;99.90;;;;;;5039494;28;20198;-65
2023/06/22 06:40:10;;;;;;;1.15;1.15;;;23.60;99.90;;;;;;5058629;28;20190;-65
2023/06/22 06:42:40;;;;;;;0.93;0.93;;;23.70;99.90;;;;;;5060147;28;20648;-65
2023/06/22 06:45:08;;;;;;;1.17;1.17;;;23.70;99.90;;;;;;5066100;28;20236;-64
2023/06/22 06:47:37;;;;;;;1.65;1.10;;;23.80;99.90;;;;;;5058042;28;20200;-64
2023/06/22 06:50:06;;;;;;;1.55;1.45;;;23.80;99.90;;;;;;5069730;28;20612;-65
2023/06/22 06:52:35;;;;;;;1.33;1.30;;;23.90;99.90;;;;;;5063517;28;20560;-64
2023/06/22 06:55:04;;;;;;;1.27;1.27;;;24.00;99.90;;;;;;5066658;28;20924;-65
2023/06/22 06:57:33;;;;;;;1.33;1.30;;;24.00;99.90;;;;;;5055128;28;20225;-65
2023/06/22 07:00:09;;;;;;;1.17;1.17;;;24.10;99.80;;;;;;5062292;28;20201;-65
2023/06/22 07:02:40;;;;;;;1.10;1.10;;;24.10;99.60;;;;;;5069907;28;20193;-64
2023/06/22 07:05:08;;;;;;;1.05;1.05;;;24.10;99.50;;;;;;5067328;28;20213;-65
2023/06/22 07:07:35;;;;;;;1.17;1.17;;;24.10;99.40;;;;;;5056784;28;20239;-65
2023/06/22 07:10:04;;;;;;;1.20;1.20;;;24.10;99.30;;;;;;5069496;28;20592;-65
2023/06/22 07:12:31;;;;;;;1.20;1.20;;;24.10;99.10;;;;;;5063020;28;20304;-65
2023/06/22 07:15:03;;;;;;;2.72;1.30;;;24.10;99.00;;;;;;5064179;28;20265;-65
2023/06/22 07:17:31;;;;;;;1.10;1.10;;;24.10;98.90;;;;;;5060713;28;20197;-65
2023/06/22 07:20:00;;;;;;;1.10;1.10;;;24.20;98.80;;;;;;5056993;28;20198;-64
2023/06/22 07:22:27;;;;;;;1.33;1.30;;;24.20;98.60;;;;;;5059921;28;20204;-64
2023/06/22 07:24:55;;;;;;;1.30;1.30;;;24.20;98.40;;;;;;5067404;28;20219;-65
2023/06/22 07:27:22;;;;;;;1.08;1.08;;;24.30;98.20;;;;;;5066305;28;20822;-65
2023/06/22 07:29:49;;;;;;;1.27;1.17;;;24.30;98.00;;;;;;5069490;28;20251;-65
2023/06/22 07:32:17;;;;;;;1.45;1.38;;;24.40;97.80;;;;;;5066061;28;20190;-65
2023/06/22 07:34:45;;;;;;;1.08;1.08;;;24.40;97.60;;;;;;5066175;28;20648;-66
2023/06/22 07:37:13;;;;;;;1.50;1.40;;;24.50;97.50;;;;;;5059591;28;20213;-65
2023/06/22 07:39:42;;;;;;;1.55;1.00;;;24.60;97.20;;;;;;5055953;28;20690;-65
2023/06/22 07:42:09;;;;;;;1.10;1.10;;;24.60;96.80;;;;;;5062575;28;20208;-65
2023/06/22 07:44:37;;;;;;;0.80;0.80;;;24.70;96.60;;;;;;5059393;28;21756;-65
2023/06/22 07:47:05;;;;;;;1.00;1.00;;;24.70;96.40;;;;;;5062247;28;20198;-65
2023/06/22 07:49:32;;;;;;;1.20;1.10;;;24.70;96.20;;;;;;5059401;28;20209;-65
2023/06/22 07:52:01;;;;;;;1.20;1.20;;;24.80;96.10;;;;;;5060244;28;20310;-65
2023/06/22 07:54:30;;;;;;;1.10;1.10;;;24.90;96.00;;;;;;5057875;28;20852;-66
2023/06/22 07:57:01;;;;;;;0.82;0.82;;;24.90;95.70;;;;;;5060401;28;20190;-66
2023/06/22 07:59:29;;;;;;;1.10;1.00;;;25.00;95.70;;;;;;5068373;28;20233;-66
2023/06/22 08:01:56;;;;;;;1.10;1.10;;;25.00;95.20;;;;;;5063285;28;20201;-65
2023/06/22 08:04:24;;;;;;;1.10;1.00;;;25.10;95.30;;;;;;5062495;28;20673;-65
2023/06/22 08:06:51;;;;;;;0.88;0.88;;;25.20;95.20;;;;;;5066498;28;20308;-65
2023/06/22 08:09:19;;;;;;;1.30;1.20;;;25.30;95.10;;;;;;5060110;28;20197;-66
2023/06/22 08:11:48;;;;;;;1.05;0.95;;;25.40;94.90;;;;;;5059387;28;20209;-65
2023/06/22 08:14:16;;;;;;;0.90;0.90;;;25.40;94.60;;;;;;5056719;28;20190;-66
2023/06/22 08:16:43;;;;;;;2.75;1.30;;;25.50;94.50;;;;;;5057268;28;20206;-66
2023/06/22 08:19:11;;;;;;;2.10;1.90;;;25.60;93.90;;;;;;5061166;28;20204;-64
2023/06/22 08:21:39;;;;;;;3.05;2.75;;;25.60;93.20;;;;;;5065761;28;20193;-64
2023/06/22 08:24:08;;;;;;;2.72;2.53;;;25.60;92.90;;;;;;5072141;28;20207;-66
2023/06/22 08:26:37;;;;;;;2.10;1.83;;;25.60;92.80;;;;;;5074337;28;20198;-65
2023/06/22 08:29:25;;;;;;;1.40;1.40;;;25.60;93.00;;;;;;5133769;27;20499;-65
2023/06/22 08:31:53;;;;;;;1.25;1.25;;;25.60;93.00;;;;;;5124143;28;20197;-65
2023/06/22 08:34:27;;;;;;;5.55;1.60;;;25.70;92.90;;;;;;5120218;28;20202;-66
2023/06/22 08:36:55;;;;;;;1.23;1.23;;;25.70;92.80;;;;;;5123586;28;20202;-65
2023/06/22 08:39:22;;;;;;;1.13;1.05;;;25.70;92.50;;;;;;5120055;28;20223;-64
2023/06/22 08:41:50;;;;;;;0.90;0.90;;;25.70;92.30;;;;;;5123910;28;20203;-66
2023/06/22 08:44:20;;;;;;;1.20;1.20;;;25.60;92.10;;;;;;5121501;27;20195;-65
2023/06/22 08:46:49;;;;;;;1.40;1.30;;;25.70;92.00;;;;;;5115557;28;20682;-64
2023/06/22 08:49:20;;;;;;;1.42;1.38;;;25.80;91.80;;;;;;5122972;28;20238;-65
2023/06/22 08:51:49;;;;;;;1.15;1.15;;;25.90;91.50;;;;;;5123633;27;20198;-65
2023/06/22 08:54:16;;;;;;;1.25;1.25;;;25.90;91.40;;;;;;5117174;28;20195;-65
2023/06/22 08:56:44;;;;;;;0.90;0.90;;;26.00;91.40;;;;;;5121344;27;20198;-65
2023/06/22 08:59:12;;;;;;;1.10;1.00;;;26.10;91.40;;;;;;5112776;27;20585;-65
2023/06/22 09:01:40;;;;;;;0.90;0.90;;;26.20;91.30;;;;;;5125406;27;20199;-65
2023/06/22 09:04:09;;;;;;;1.25;1.02;;;26.30;91.30;;;;;;5125457;27;20552;-65
2023/06/22 09:06:41;;;;;;;0.90;0.90;;;26.30;91.10;;;;;;5103402;28;20613;-65
2023/06/22 09:09:08;;;;;;;1.40;1.30;;;26.40;91.00;;;;;;5123518;28;20234;-66
2023/06/22 09:11:36;;;;;;;1.70;1.60;;;26.40;90.50;;;;;;5125238;27;20205;-65
2023/06/22 09:14:03;;;;;;;1.45;1.35;;;26.50;90.10;;;;;;5119662;28;20223;-65
2023/06/22 09:16:33;;;;;;;1.20;1.10;;;26.50;90.00;;;;;;5115787;28;20622;-65
2023/06/22 09:19:00;;;;;;;1.15;1.15;;;26.50;90.00;;;;;;5116529;28;20187;-65
2023/06/22 09:21:30;;;;;;;4.00;1.65;;;26.60;89.70;;;;;;5122820;28;20670;-65
2023/06/22 09:23:57;;;;;;;1.77;1.40;;;26.60;88.90;;;;;;5116697;28;20652;-66
2023/06/22 09:26:25;;;;;;;1.10;1.10;;;26.70;88.90;;;;;;5114140;27;20280;-65
2023/06/22 09:28:52;;;;;;;1.52;1.42;;;26.80;87.60;;;;;;5123046;27;20235;-70
2023/06/22 09:31:25;;;;;;;1.45;1.35;;;26.80;86.90;;;;;;5124494;28;20195;-64
2023/06/22 09:33:53;;;;;;;1.73;1.50;;;26.80;86.90;;;;;;5122842;28;20870;-65
2023/06/22 09:36:21;;;;;;;1.27;1.25;;;26.90;86.70;;;;;;5124246;28;20605;-65
2023/06/22 09:38:54;;;;;;;2.47;1.50;;;27.00;86.00;;;;;;5116749;28;20226;-65
2023/06/22 09:41:22;;;;;;;1.20;1.20;;;27.00;84.90;;;;;;5101318;28;20197;-65
2023/06/22 09:43:50;;;;;;;1.38;1.30;;;27.10;85.50;;;;;;5102844;28;20226;-66
2023/06/22 09:46:18;;;;;;;1.30;1.17;;;27.10;84.80;;;;;;5111679;28;20200;-65
2023/06/22 09:48:45;;;;;;;1.10;1.10;;;27.20;84.70;;;;;;5108894;28;20219;-65
2023/06/22 09:51:13;;;;;;;1.35;1.30;;;27.20;84.70;;;;;;5111302;28;20202;-65
2023/06/22 09:53:40;;;;;;;0.90;0.90;;;27.20;84.40;;;;;;5097754;28;20258;-65
2023/06/22 09:56:14;;;;;;;1.10;1.10;;;27.30;84.30;;;;;;5103317;28;20384;-65
2023/06/22 09:58:43;;;;;;;1.02;1.02;;;27.30;83.90;;;;;;5108473;28;20257;-65
2023/06/22 10:01:11;;;;;;;1.02;1.02;;;27.40;83.70;;;;;;5111066;28;20191;-65
2023/06/22 10:03:38;;;;;;;1.38;1.27;;;27.40;83.20;;;;;;5108098;28;20256;-65
2023/06/22 10:06:06;;;;;;;1.30;1.20;;;27.50;82.30;;;;;;5111427;28;20249;-65
2023/06/22 10:08:33;;;;;;;0.88;0.88;;;27.50;82.00;;;;;;5097351;28;20214;-65
2023/06/22 10:11:01;;;;;;;1.45;1.35;;;27.60;81.90;;;;;;5110743;28;20194;-65
2023/06/22 10:13:30;;;;;;;1.02;1.02;;;27.60;81.20;;;;;;5108462;28;20192;-65
2023/06/22 10:15:57;;;;;;;0.90;0.90;;;27.60;80.90;;;;;;5107573;28;20195;-66
2023/06/22 10:18:25;;;;;;;1.23;0.98;;;27.60;80.80;;;;;;5108023;28;20188;-65
2023/06/22 10:20:52;;;;;;;0.93;0.93;;;27.70;80.50;;;;;;5107879;28;20609;-66
2023/06/22 10:23:21;;;;;;;0.98;0.98;;;27.70;80.30;;;;;;5094741;28;20204;-66
2023/06/22 10:25:51;;;;;;;0.90;0.90;;;27.80;80.00;;;;;;5097679;28;20400;-65
2023/06/22 10:28:18;;;;;;;0.88;0.88;;;27.80;80.00;;;;;;5103021;28;20219;-66
2023/06/22 10:30:47;;;;;;;1.05;1.05;;;27.90;80.10;;;;;;5111316;28;20204;-65
2023/06/22 10:33:15;;;;;;;3.60;2.30;;;28.00;79.90;;;;;;5120471;27;20813;-65
2023/06/22 10:35:42;;;;;;;1.95;1.85;;;28.10;78.30;;;;;;5110870;28;20620;-65
2023/06/22 10:38:09;;;;;;;2.75;1.75;;;28.00;78.30;;;;;;5109331;28;20192;-67
2023/06/22 10:40:39;;;;;;;1.67;1.58;;;28.00;78.60;;;;;;5111886;28;20673;-65
2023/06/22 10:43:06;;;;;;;1.40;1.40;;;28.00;78.90;;;;;;5100758;28;20295;-65
2023/06/22 10:45:34;;;;;;;2.00;1.50;;;28.10;79.50;;;;;;5111541;28;20198;-65
2023/06/22 10:48:03;;;;;;;3.03;2.00;;;28.00;79.50;;;;;;5102304;28;20222;-66
2023/06/22 10:50:30;;;;;;;9.25;1.88;;;28.00;79.00;;;;;;5110777;28;20199;-66
2023/06/22 10:52:58;;;;;;;1.88;1.30;;;28.00;79.30;;;;;;5108599;28;20199;-66
2023/06/22 10:55:26;;;;;;;1.80;1.50;;;28.00;79.10;;;;;;5111767;27;20191;-66
2023/06/22 10:57:53;;;;;;;2.63;1.50;;;28.00;79.20;;;;;;5105725;28;20732;-66
2023/06/22 11:00:21;;;;;;;1.48;1.27;;;28.10;79.10;;;;;;5111257;28;20689;-63
2023/06/22 11:02:48;;;;;;;3.38;1.67;;;28.10;78.90;;;;;;5111028;28;20562;-66
2023/06/22 11:05:17;;;;;;;2.75;2.55;;;28.20;78.60;;;;;;5111301;28;20196;-66
2023/06/22 11:07:45;;;;;;;4.05;2.15;;;28.10;79.40;;;;;;5104535;28;20713;-65
2023/06/22 11:10:13;;;;;;;2.58;2.33;;;28.10;80.60;;;;;;5098173;28;20200;-65
2023/06/22 11:12:42;;;;;;;2.42;2.00;;;28.10;82.30;;;;;;5096423;28;20195;-66
2023/06/22 11:15:10;;;;;;;2.28;2.10;;;28.10;82.10;;;;;;5111405;28;20203;-66
2023/06/22 11:17:37;;;;;;;2.83;2.13;;;28.10;82.40;;;;;;5103570;28;20200;-65
2023/06/22 11:20:10;;;;;;;6.10;2.47;;;28.00;82.80;;;;;;5105975;28;20279;-66
2023/06/22 11:22:39;;;;;;;3.40;3.10;;;27.90;83.30;;;;;;5108908;28;20191;-66
2023/06/22 11:25:08;;;;;;;3.83;3.05;;;27.80;83.80;;;;;;5110957;28;20188;-66
2023/06/22 11:27:35;;;;;;;2.50;2.25;;;27.80;84.00;;;;;;5104023;28;20239;-65
2023/06/22 11:30:03;;;;;;;2.95;2.28;;;27.70;84.00;;;;;;5095683;28;20226;-64
2023/06/22 11:32:30;;;;;;;2.38;2.17;;;27.70;84.10;;;;;;5108817;28;20209;-66
2023/06/22 11:34:58;;;;;;;3.05;2.22;;;27.60;84.30;;;;;;5107942;28;20188;-66
2023/06/22 11:37:25;;;;;;;3.03;2.03;;;27.60;84.50;;;;;;5108217;28;20202;-65
2023/06/22 11:39:55;;;;;;;1.85;1.75;;;27.60;84.70;;;;;;5105353;28;20304;-65
2023/06/22 11:42:23;;;;;;;2.25;1.50;;;27.70;84.90;;;;;;5109727;28;20192;-65
2023/06/22 11:44:50;;;;;;;1.60;1.50;;;27.70;84.90;;;;;;5110987;28;20224;-66
2023/06/22 11:47:18;;;;;;;1.40;1.30;;;27.70;84.90;;;;;;5108341;28;20212;-65
2023/06/22 11:49:45;;;;;;;2.92;2.00;;;27.80;84.90;;;;;;5110600;28;20219;-65
2023/06/22 11:52:13;;;;;;;1.58;1.50;;;27.80;84.60;;;;;;5106050;28;20767;-65
2023/06/22 11:54:40;;;;;;;7.32;2.50;;;27.80;84.50;;;;;;5096091;28;20200;-65
2023/06/22 11:57:09;;;;;;;2.30;2.20;;;27.90;84.60;;;;;;5107133;28;20206;-64
2023/06/22 11:59:36;;;;;;;2.08;1.88;;;27.90;84.50;;;;;;5110138;28;20248;-66
2023/06/22 12:02:09;;;;;;;3.00;2.50;;;27.90;84.30;;;;;;5105545;28;20199;-65
2023/06/22 12:04:37;;;;;;;3.25;2.90;;;27.80;83.80;;;;;;5098843;28;20288;-65
2023/06/22 12:07:05;;;;;;;3.25;2.30;;;27.80;83.50;;;;;;5089878;28;20432;-65
2023/06/22 12:09:33;;;;;;;3.53;2.03;;;27.80;83.40;;;;;;5092584;28;20215;-65
2023/06/22 12:12:00;;;;;;;2.20;2.05;;;27.70;83.30;;;;;;5094692;28;20246;-66
2023/06/22 12:14:29;;;;;;;3.00;2.20;;;27.70;83.30;;;;;;5112403;27;20205;-65
2023/06/22 12:16:57;;;;;;;2.05;1.85;;;27.70;83.10;;;;;;5105145;28;20194;-65
2023/06/22 12:19:24;;;;;;;1.55;1.50;;;27.70;82.80;;;;;;5108828;28;20196;-64
2023/06/22 12:21:52;;;;;;;1.90;1.80;;;27.80;82.70;;;;;;5101134;28;20623;-65
2023/06/22 12:24:19;;;;;;;1.90;1.80;;;27.80;82.60;;;;;;5106394;28;20203;-65
2023/06/22 12:26:46;;;;;;;2.08;1.80;;;27.90;82.30;;;;;;5105681;28;20250;-66
2023/06/22 12:29:14;;;;;;;2.00;1.90;;;27.90;81.80;;;;;;5104233;28;20235;-64
2023/06/22 12:31:43;;;;;;;2.67;1.77;;;28.00;81.50;;;;;;5104352;28;20230;-65
2023/06/22 12:34:10;;;;;;;4.80;2.25;;;28.00;81.50;;;;;;5105961;28;20198;-66
2023/06/22 12:36:38;;;;;;;1.80;1.55;;;28.10;81.50;;;;;;5104225;28;20693;-65
2023/06/22 12:39:05;;;;;;;3.38;1.70;;;28.10;81.20;;;;;;5105155;28;20287;-65
2023/06/22 12:41:32;;;;;;;6.22;1.70;;;28.20;81.10;;;;;;5107953;28;20466;-65
2023/06/22 12:44:00;;;;;;;3.63;1.95;;;28.20;80.50;;;;;;5107305;28;20202;-66
2023/06/22 12:46:27;;;;;;;1.98;1.73;;;28.20;80.10;;;;;;5108418;28;20740;-65
2023/06/22 12:48:56;;;;;;;1.85;1.75;;;28.10;79.60;;;;;;5107729;28;20216;-66
2023/06/22 12:51:24;;;;;;;3.10;1.90;;;28.10;79.70;;;;;;5108016;28;20203;-65
2023/06/22 12:53:51;;;;;;;2.50;2.17;;;28.20;79.60;;;;;;5106129;28;20206;-65